Time;durP1;ratioP1;P1;durP2;ratioP2;P2;SDS_P1;SDS_P2;PMS_P1;PMS_P2;Temp;Humidity;BMP_temperature;BMP_pressure;BME280_temperature;BME280_humidity;BME280_pressure;Samples;Min_cycle;Max_cycle;Signal;HPM_P1;HPM_P2
2023/12/23 00:01:57;;;;;;;6.30;1.20;;;;;;;4.41;65.00;99903.75;5043348;27;105466;-53
2023/12/23 00:04:23;;;;;;;7.10;1.57;;;;;;;4.41;65.11;99911.22;5042828;27;97322;-53
2023/12/23 00:06:48;;;;;;;6.63;0.87;;;;;;;4.41;64.79;99914.72;5041916;27;97398;-53
2023/12/23 00:09:15;;;;;;;4.57;0.97;;;;;;;4.40;64.84;99923.44;5043480;27;107786;-53
2023/12/23 00:11:41;;;;;;;4.60;1.10;;;;;;;4.41;64.68;99933.13;5042692;27;97128;-53
2023/12/23 00:14:06;;;;;;;8.13;1.53;;;;;;;4.35;65.03;99929.63;5042262;27;97230;-53
2023/12/23 00:16:32;;;;;;;4.03;1.03;;;;;;;4.29;64.90;99937.06;5039331;27;109251;-53
2023/12/23 00:18:57;;;;;;;3.50;0.87;;;;;;;4.25;64.93;99936.56;5043074;27;105496;-53
2023/12/23 00:21:22;;;;;;;4.37;1.10;;;;;;;4.21;65.16;99944.25;5041773;27;96724;-53
2023/12/23 00:23:48;;;;;;;4.43;1.00;;;;;;;4.18;64.79;99948.72;5041994;27;97504;-53
2023/12/23 00:26:13;;;;;;;3.63;0.97;;;;;;;4.14;64.72;99953.66;5044068;27;98819;-53
2023/12/23 00:28:38;;;;;;;3.53;1.00;;;;;;;4.17;64.69;99971.09;5042655;27;97752;-53
2023/12/23 00:31:04;;;;;;;5.20;1.03;;;;;;;4.19;64.49;99974.84;5042538;27;97826;-53
2023/12/23 00:33:29;;;;;;;2.27;0.80;;;;;;;4.17;64.40;99984.78;5041614;27;98202;-53
2023/12/23 00:35:54;;;;;;;11.17;1.33;;;;;;;4.16;64.52;99986.03;5041681;27;97161;-53
2023/12/23 00:38:19;;;;;;;7.20;1.50;;;;;;;4.14;64.44;99989.25;5040440;27;106612;-53
2023/12/23 00:40:45;;;;;;;13.13;1.20;;;;;;;4.16;64.28;99992.25;5039633;27;97173;-53
2023/12/23 00:43:10;;;;;;;10.00;1.10;;;;;;;4.19;64.31;100001.47;5037010;27;97100;-52
2023/12/23 00:45:36;;;;;;;5.23;1.00;;;;;;;4.19;64.62;100002.22;5035262;27;101956;-53
2023/12/23 00:48:01;;;;;;;2.27;0.80;;;;;;;4.20;64.50;100008.44;5040723;27;96742;-52
2023/12/23 00:50:26;;;;;;;4.60;1.00;;;;;;;4.23;64.49;100021.16;5039901;27;96832;-53
2023/12/23 00:52:51;;;;;;;2.63;0.87;;;;;;;4.26;64.66;100036.59;5038579;27;103564;-53
2023/12/23 00:55:17;;;;;;;3.63;1.00;;;;;;;4.24;64.13;100028.88;5042205;27;107825;-53
2023/12/23 00:57:42;;;;;;;4.97;1.07;;;;;;;4.22;64.40;100036.06;5040209;27;98776;-53
2023/12/23 01:00:08;;;;;;;6.50;0.90;;;;;;;4.24;64.21;100033.59;5040210;27;100958;-52
2023/12/23 01:02:33;;;;;;;7.03;1.27;;;;;;;4.25;64.22;100040.59;5041089;27;97651;-53
2023/12/23 01:04:59;;;;;;;7.03;1.63;;;;;;;4.26;64.36;100036.59;5038271;27;98358;-53
2023/12/23 01:07:24;;;;;;;4.47;0.70;;;;;;;4.26;64.47;100048.31;5037144;27;102101;-53
2023/12/23 01:09:49;;;;;;;5.20;1.10;;;;;;;4.30;63.89;100050.84;5038985;27;98139;-53
2023/12/23 01:12:14;;;;;;;2.90;1.03;;;;;;;4.31;64.45;100047.59;5041516;27;96904;-53
2023/12/23 01:14:40;;;;;;;6.60;1.10;;;;;;;4.29;64.14;100049.34;5038689;27;104726;-53
2023/12/23 01:17:05;;;;;;;6.70;1.53;;;;;;;4.23;64.09;100043.06;5038683;27;97529;-53
2023/12/23 01:19:30;;;;;;;5.27;1.30;;;;;;;4.18;63.81;100054.72;5037922;27;102763;-53
2023/12/23 01:21:57;;;;;;;6.60;1.27;;;;;;;4.14;64.02;100049.47;5039846;27;99022;-53
2023/12/23 01:24:22;;;;;;;6.70;1.27;;;;;;;4.06;63.96;100060.09;5038065;27;97738;-52
2023/12/23 01:26:48;;;;;;;5.10;1.33;;;;;;;4.05;64.05;100052.38;5040046;27;98350;-53
2023/12/23 01:29:13;;;;;;;3.87;0.97;;;;;;;4.00;63.88;100042.13;5038652;27;96894;-53
2023/12/23 01:31:38;;;;;;;6.97;0.83;;;;;;;3.90;64.18;100044.28;5041084;27;97291;-53
2023/12/23 01:34:04;;;;;;;10.07;1.30;;;;;;;3.89;64.21;100053.75;5040391;27;96717;-53
2023/12/23 01:36:29;;;;;;;3.33;0.80;;;;;;;3.89;64.11;100070.16;5038889;27;97136;-53
2023/12/23 01:38:54;;;;;;;5.40;1.23;;;;;;;3.90;64.04;100057.25;5039720;27;96802;-53
2023/12/23 01:41:19;;;;;;;5.07;0.90;;;;;;;3.92;63.88;100057.50;5040278;27;98231;-53
2023/12/23 01:43:45;;;;;;;7.07;1.30;;;;;;;3.91;64.29;100048.53;5039422;27;97664;-53
2023/12/23 01:46:11;;;;;;;2.27;0.80;;;;;;;3.92;64.28;100046.56;5038628;27;97096;-53
2023/12/23 01:48:39;;;;;;;2.53;0.90;;;;;;;3.91;64.00;100048.53;5038129;27;97043;-52
2023/12/23 01:51:04;;;;;;;3.97;1.20;;;;;;;3.93;64.09;100059.75;5040630;27;96842;-53
2023/12/23 01:53:31;;;;;;;5.80;1.43;;;;;;;3.96;63.92;100058.03;5035121;27;97345;-53
2023/12/23 01:55:57;;;;;;;3.23;0.90;;;;;;;3.96;64.15;100056.06;5038688;27;97608;-52
2023/12/23 01:58:23;;;;;;;6.73;1.10;;;;;;;3.98;63.99;100056.31;5038931;27;97492;-53
2023/12/23 02:00:49;;;;;;;6.00;1.20;;;;;;;4.02;63.84;100056.09;5040256;27;96865;-53
2023/12/23 02:03:14;;;;;;;3.43;0.73;;;;;;;4.03;64.02;100052.84;5039984;27;97456;-53
2023/12/23 02:05:39;;;;;;;7.90;1.03;;;;;;;4.07;64.30;100061.63;5039233;27;97265;-53
2023/12/23 02:08:06;;;;;;;3.27;0.97;;;;;;;4.11;63.93;100061.38;5038697;27;97113;-53
2023/12/23 02:10:31;;;;;;;2.80;0.70;;;;;;;4.15;64.47;100058.41;5038213;27;96858;-53
2023/12/23 02:13:34;;;;;;;5.00;1.20;;;;;;;4.20;63.95;100060.47;5039427;27;96962;-53
2023/12/23 02:16:02;;;;;;;1.90;0.80;;;;;;;4.21;64.03;100064.72;5033846;27;97202;-53
2023/12/23 02:18:27;;;;;;;5.63;0.90;;;;;;;4.22;64.03;100063.47;5037732;27;97306;-53
2023/12/23 02:20:52;;;;;;;4.00;0.90;;;;;;;4.20;63.86;100066.69;5039812;27;97345;-53
2023/12/23 02:23:18;;;;;;;4.97;0.93;;;;;;;4.20;63.95;100065.94;5039891;27;109683;-53
2023/12/23 02:25:54;;;;;;;4.50;0.90;;;;;;;4.23;63.73;100060.25;5040111;27;97157;-53
2023/12/23 02:28:22;;;;;;;3.73;1.20;;;;;;;4.23;64.06;100064.97;5040116;27;97027;-53
2023/12/23 02:30:50;;;;;;;4.13;0.90;;;;;;;4.22;64.04;100060.72;5038424;27;96852;-53
2023/12/23 02:33:16;;;;;;;7.97;1.20;;;;;;;4.24;64.23;100058.25;5039168;27;97480;-52
2023/12/23 02:35:41;;;;;;;4.03;1.47;;;;;;;4.22;63.99;100055.25;5039425;27;96787;-53
2023/12/23 02:38:07;;;;;;;3.23;0.60;;;;;;;4.25;64.05;100054.28;5041847;27;97164;-52
2023/12/23 02:40:34;;;;;;;6.93;1.07;;;;;;;4.28;63.95;100058.78;5034731;27;97307;-53
2023/12/23 02:43:01;;;;;;;5.30;1.17;;;;;;;4.30;64.06;100059.06;5037893;27;97608;-52
2023/12/23 02:45:26;;;;;;;6.87;1.10;;;;;;;4.32;63.85;100049.09;5037475;27;96888;-52
2023/12/23 02:47:52;;;;;;;3.03;1.17;;;;;;;4.32;64.01;100056.56;5041134;27;102307;-52
2023/12/23 02:50:17;;;;;;;8.13;1.30;;;;;;;4.29;63.72;100058.31;5040730;27;97629;-53
2023/12/23 02:52:42;;;;;;;3.40;1.40;;;;;;;4.29;64.03;100052.81;5039509;27;96818;-53
2023/12/23 02:55:08;;;;;;;7.73;1.40;;;;;;;4.32;63.87;100048.38;5039202;27;110572;-52
2023/12/23 02:57:33;;;;;;;11.07;1.07;;;;;;;4.35;63.85;100047.38;5037606;27;97066;-52
2023/12/23 02:59:58;;;;;;;10.20;1.70;;;;;;;4.38;64.05;100049.91;5036859;27;99527;-53
2023/12/23 03:02:24;;;;;;;5.07;1.40;;;;;;;4.39;63.82;100040.44;5037086;27;97562;-52
2023/12/23 03:04:49;;;;;;;9.33;1.50;;;;;;;4.39;63.79;100043.16;5038307;27;97329;-52
2023/12/23 03:07:14;;;;;;;9.93;1.47;;;;;;;4.39;63.93;100036.94;5036239;27;106660;-52
2023/12/23 03:09:39;;;;;;;8.90;1.37;;;;;;;4.41;64.04;100042.69;5039791;27;97167;-52
2023/12/23 03:12:05;;;;;;;11.97;1.90;;;;;;;4.42;63.90;100039.47;5038111;27;97525;-52
2023/12/23 03:14:31;;;;;;;5.20;1.30;;;;;;;4.45;63.95;100043.22;5038993;27;97313;-52
2023/12/23 03:16:56;;;;;;;4.47;1.00;;;;;;;4.47;63.99;100043.47;5038784;27;97170;-53
2023/12/23 03:19:21;;;;;;;3.47;1.00;;;;;;;4.48;63.93;100047.72;5039636;27;97130;-52
2023/12/23 03:21:48;;;;;;;6.37;1.30;;;;;;;4.53;63.94;100039.53;5038165;27;98761;-52
2023/12/23 03:24:13;;;;;;;5.67;1.20;;;;;;;4.55;63.72;100039.03;5040819;27;97182;-52
2023/12/23 03:26:38;;;;;;;6.63;1.00;;;;;;;4.57;63.95;100037.31;5039218;27;96943;-52
2023/12/23 03:29:07;;;;;;;7.80;1.23;;;;;;;4.62;63.88;100033.88;5038755;27;96670;-52
2023/12/23 03:31:34;;;;;;;5.80;1.60;;;;;;;4.62;63.64;100033.88;5035990;27;97658;-53
2023/12/23 03:34:02;;;;;;;7.53;1.60;;;;;;;4.62;63.60;100044.06;5037403;27;97024;-52
2023/12/23 03:36:28;;;;;;;3.70;1.13;;;;;;;4.62;63.84;100058.53;5039591;27;96782;-52
2023/12/23 03:38:55;;;;;;;8.43;1.77;;;;;;;4.68;63.81;100053.81;5037864;27;96973;-52
2023/12/23 03:41:20;;;;;;;3.13;1.03;;;;;;;4.71;63.61;100063.06;5020102;27;99184;-52
2023/12/23 03:43:46;;;;;;;7.43;1.53;;;;;;;4.74;64.00;100053.84;5036762;27;97196;-52
2023/12/23 03:46:11;;;;;;;6.33;1.10;;;;;;;4.73;63.95;100055.09;5037729;27;108049;-52
2023/12/23 03:48:36;;;;;;;6.90;1.30;;;;;;;4.69;63.99;100055.31;5038370;27;96793;-52
2023/12/23 03:51:02;;;;;;;4.80;0.93;;;;;;;4.61;64.01;100050.78;5040038;27;96802;-52
2023/12/23 03:53:27;;;;;;;7.60;1.60;;;;;;;4.68;64.24;100055.81;5038128;27;97112;-52
2023/12/23 03:55:53;;;;;;;7.20;1.23;;;;;;;4.72;63.93;100056.31;5039527;27;96829;-52
2023/12/23 03:58:18;;;;;;;7.57;1.27;;;;;;;4.67;64.15;100046.06;5042788;27;96931;-53
2023/12/23 04:00:43;;;;;;;8.83;1.20;;;;;;;4.68;64.45;100055.81;5040717;27;97508;-53
2023/12/23 04:03:09;;;;;;;4.53;1.27;;;;;;;4.69;64.24;100051.84;5041067;27;109428;-53
2023/12/23 04:05:34;;;;;;;5.33;1.10;;;;;;;4.69;64.29;100052.56;5041254;27;96687;-53
2023/12/23 04:07:59;;;;;;;6.37;1.40;;;;;;;4.67;64.24;100043.31;5040513;27;97230;-52
2023/12/23 04:10:25;;;;;;;6.80;1.03;;;;;;;4.66;64.38;100047.31;5040161;27;102441;-52
2023/12/23 04:12:50;;;;;;;4.37;1.27;;;;;;;4.63;64.35;100048.28;5038439;27;104969;-52
2023/12/23 04:15:16;;;;;;;6.33;1.20;;;;;;;4.63;64.39;100048.28;5040404;27;96686;-53
2023/12/23 04:17:42;;;;;;;2.47;1.00;;;;;;;4.65;64.62;100054.03;5041617;27;97133;-52
2023/12/23 04:20:08;;;;;;;3.63;0.90;;;;;;;4.67;64.35;100044.09;5042390;27;97402;-53
2023/12/23 04:22:34;;;;;;;5.70;1.07;;;;;;;4.71;64.61;100032.91;5039781;27;98204;-52
2023/12/23 04:24:59;;;;;;;4.10;1.03;;;;;;;4.76;64.35;100046.66;5040935;27;96913;-53
2023/12/23 04:27:25;;;;;;;3.47;0.97;;;;;;;4.77;64.54;100041.94;5040646;27;97101;-52
2023/12/23 04:29:51;;;;;;;4.90;1.77;;;;;;;4.75;64.43;100036.16;5038240;27;97297;-52
2023/12/23 04:32:16;;;;;;;2.40;0.90;;;;;;;4.74;64.21;100032.66;5039697;27;96720;-52
2023/12/23 04:34:41;;;;;;;7.30;1.10;;;;;;;4.76;64.52;100040.41;5040113;27;103381;-52
2023/12/23 04:37:07;;;;;;;13.43;1.90;;;;;;;4.77;64.45;100030.97;5040299;27;97509;-52
2023/12/23 04:39:32;;;;;;;4.60;1.17;;;;;;;4.79;64.45;100025.75;5039573;27;97318;-52
2023/12/23 04:41:57;;;;;;;5.97;1.23;;;;;;;4.79;64.33;100023.75;5034658;27;97696;-52
2023/12/23 04:44:23;;;;;;;6.30;1.30;;;;;;;4.79;64.56;100020.28;5037864;27;103369;-52
2023/12/23 04:46:50;;;;;;;4.70;0.97;;;;;;;4.74;64.26;100002.53;5041753;27;97657;-53
2023/12/23 04:49:16;;;;;;;4.87;1.20;;;;;;;4.78;64.60;100016.00;5018344;27;97752;-52
2023/12/23 04:51:44;;;;;;;4.10;1.43;;;;;;;4.81;64.66;100012.31;5040751;27;98278;-53
2023/12/23 04:54:11;;;;;;;6.80;1.73;;;;;;;4.85;64.69;100010.06;5038732;27;97263;-52
2023/12/23 04:56:36;;;;;;;3.37;1.07;;;;;;;4.87;64.62;100002.09;5040125;27;96946;-53
2023/12/23 04:59:01;;;;;;;2.80;1.20;;;;;;;4.84;64.66;99997.63;5041439;27;97307;-52
2023/12/23 05:01:27;;;;;;;3.70;1.37;;;;;;;4.86;64.58;100005.34;5039669;27;98298;-52
2023/12/23 05:03:52;;;;;;;4.93;1.10;;;;;;;4.88;64.61;100005.59;5039707;27;99261;-52
2023/12/23 05:06:18;;;;;;;5.70;1.17;;;;;;;4.85;64.47;100006.56;5040185;27;96808;-52
2023/12/23 05:08:43;;;;;;;5.03;1.23;;;;;;;4.81;64.96;99993.13;5035538;27;97088;-52
2023/12/23 05:11:08;;;;;;;7.53;1.40;;;;;;;4.81;64.67;99998.59;5039544;27;97394;-52
2023/12/23 05:13:34;;;;;;;6.43;1.17;;;;;;;4.84;64.62;99989.41;5040584;27;96962;-52
2023/12/23 05:15:59;;;;;;;3.47;0.73;;;;;;;4.79;64.75;99981.91;5039658;27;105588;-53
2023/12/23 05:18:24;;;;;;;7.40;1.33;;;;;;;4.77;64.73;99982.41;5036583;27;97012;-53
2023/12/23 05:20:50;;;;;;;4.43;1.00;;;;;;;4.80;64.86;99977.91;5042265;27;97234;-52
2023/12/23 05:23:16;;;;;;;6.90;1.27;;;;;;;4.79;64.48;99979.16;5039497;27;96805;-52
2023/12/23 05:25:42;;;;;;;5.73;0.60;;;;;;;4.74;64.68;99966.16;5040729;27;97058;-53
2023/12/23 05:28:07;;;;;;;5.23;0.60;;;;;;;4.70;64.77;99965.66;5040426;27;97173;-52
2023/12/23 05:30:32;;;;;;;3.17;0.70;;;;;;;4.68;64.89;99952.44;5038658;27;103370;-53
2023/12/23 05:32:58;;;;;;;1.90;0.70;;;;;;;4.71;64.76;99956.94;5037332;27;96954;-52
2023/12/23 05:35:23;;;;;;;2.20;0.90;;;;;;;4.73;65.02;99956.44;5039833;27;96843;-53
2023/12/23 05:37:48;;;;;;;3.33;0.87;;;;;;;4.77;64.85;99957.75;5039314;27;105755;-52
2023/12/23 05:40:14;;;;;;;2.87;1.20;;;;;;;4.78;64.62;99972.16;5039606;27;108794;-53
2023/12/23 05:42:39;;;;;;;3.17;0.93;;;;;;;4.76;64.81;99966.44;5038465;27;96975;-52
2023/12/23 05:45:05;;;;;;;4.07;1.23;;;;;;;4.73;64.76;99976.34;5040944;27;107504;-53
2023/12/23 05:47:30;;;;;;;2.77;1.23;;;;;;;4.73;64.49;99962.66;5038261;27;96981;-52
2023/12/23 05:49:57;;;;;;;2.83;1.10;;;;;;;4.76;65.01;99963.69;5039708;27;105465;-52
2023/12/23 05:52:22;;;;;;;3.90;0.90;;;;;;;4.79;64.92;99946.28;5040873;27;97114;-53
2023/12/23 05:54:49;;;;;;;1.13;0.50;;;;;;;4.82;64.85;99940.56;5040439;27;96975;-52
2023/12/23 05:57:14;;;;;;;2.63;0.60;;;;;;;4.86;64.87;99936.84;5040407;27;96723;-52
2023/12/23 05:59:39;;;;;;;2.20;0.50;;;;;;;4.88;64.54;99934.34;5037531;27;97844;-52
2023/12/23 06:02:05;;;;;;;1.10;0.63;;;;;;;4.89;64.95;99931.09;5039948;27;98152;-52
2023/12/23 06:04:30;;;;;;;4.70;0.80;;;;;;;4.91;64.76;99919.66;5040047;27;105873;-52
2023/12/23 06:06:56;;;;;;;1.37;0.60;;;;;;;4.93;64.84;99915.16;5038405;27;97314;-52
2023/12/23 06:09:21;;;;;;;2.87;1.33;;;;;;;4.95;64.94;99904.47;5040230;27;97766;-52
2023/12/23 06:11:46;;;;;;;1.83;0.90;;;;;;;4.96;64.67;99903.22;5038038;27;96965;-53
2023/12/23 06:14:11;;;;;;;3.80;1.40;;;;;;;4.98;64.82;99897.22;5038768;27;98650;-53
2023/12/23 06:16:40;;;;;;;3.47;0.70;;;;;;;5.01;64.41;99896.25;5040997;27;109449;-53
2023/12/23 06:19:06;;;;;;;1.80;0.77;;;;;;;5.00;64.71;99884.53;5035934;27;98441;-53
2023/12/23 06:21:32;;;;;;;2.70;1.10;;;;;;;5.00;64.80;99887.28;5037427;27;96707;-53
2023/12/23 06:23:58;;;;;;;5.70;1.30;;;;;;;5.02;64.58;99890.28;5037671;27;97736;-53
2023/12/23 06:26:25;;;;;;;3.70;0.80;;;;;;;5.03;64.82;99885.53;5040730;27;97113;-52
2023/12/23 06:28:50;;;;;;;3.30;1.10;;;;;;;5.03;64.89;99891.78;5039188;27;98407;-52
2023/12/23 06:31:15;;;;;;;2.47;0.70;;;;;;;5.03;64.71;99885.53;5040692;27;96912;-52
2023/12/23 06:33:40;;;;;;;2.27;0.73;;;;;;;5.02;64.87;99879.31;5036517;27;97175;-52
2023/12/23 06:36:08;;;;;;;2.93;1.13;;;;;;;5.00;64.86;99873.56;5038927;27;103824;-52
2023/12/23 06:38:33;;;;;;;1.87;0.90;;;;;;;5.00;64.59;99867.34;5037180;27;96998;-52
2023/12/23 06:40:58;;;;;;;0.90;0.57;;;;;;;4.98;64.70;99864.34;5036130;27;97270;-52
2023/12/23 06:43:24;;;;;;;1.47;0.80;;;;;;;4.98;64.58;99869.81;5039303;27;102748;-52
2023/12/23 06:45:49;;;;;;;4.50;1.20;;;;;;;4.98;64.53;99867.84;5038897;27;96543;-52
2023/12/23 06:48:14;;;;;;;2.47;1.10;;;;;;;4.97;64.64;99858.13;5040441;27;100874;-52
2023/12/23 06:50:40;;;;;;;7.80;1.20;;;;;;;4.99;64.54;99852.91;5038235;27;102654;-52
2023/12/23 06:53:05;;;;;;;4.37;0.90;;;;;;;4.98;64.55;99854.13;5036927;27;97418;-52
2023/12/23 06:55:30;;;;;;;2.40;1.10;;;;;;;4.95;64.70;99871.59;5040088;27;108737;-52
2023/12/23 06:57:57;;;;;;;4.03;1.00;;;;;;;4.96;64.62;99853.88;5037999;27;96782;-52
2023/12/23 07:00:22;;;;;;;2.80;0.90;;;;;;;4.94;64.62;99844.66;5038526;27;96767;-52
2023/12/23 07:02:49;;;;;;;4.13;0.80;;;;;;;4.89;64.84;99846.16;5039562;27;96961;-52
2023/12/23 07:05:14;;;;;;;7.03;0.87;;;;;;;4.86;64.79;99836.19;5039136;27;97807;-52
2023/12/23 07:07:39;;;;;;;1.90;0.73;;;;;;;4.84;65.00;99835.19;5038725;27;97233;-52
2023/12/23 07:10:05;;;;;;;5.20;1.00;;;;;;;4.82;64.94;99836.41;5038938;27;97137;-52
2023/12/23 07:12:30;;;;;;;1.90;0.80;;;;;;;4.80;65.10;99829.94;5021457;27;96879;-52
2023/12/23 07:14:56;;;;;;;2.00;0.80;;;;;;;4.80;65.00;99835.41;5036379;27;105859;-52
2023/12/23 07:17:21;;;;;;;2.07;0.70;;;;;;;4.79;65.26;99833.94;5039297;27;103884;-52
2023/12/23 07:19:46;;;;;;;3.13;0.60;;;;;;;4.77;65.11;99828.22;5040135;27;97237;-52
2023/12/23 07:22:12;;;;;;;2.70;0.53;;;;;;;4.73;65.07;99828.41;5039394;27;96646;-52
2023/12/23 07:24:40;;;;;;;2.53;0.93;;;;;;;4.70;65.06;99839.63;5039494;27;98673;-52
2023/12/23 07:27:05;;;;;;;3.90;0.77;;;;;;;4.67;65.06;99826.91;5038472;27;97178;-52
2023/12/23 07:29:30;;;;;;;2.20;0.80;;;;;;;4.65;65.15;99827.41;5034766;27;96819;-52
2023/12/23 07:31:56;;;;;;;0.70;0.70;;;;;;;4.64;65.52;99825.91;5041480;27;100070;-53
2023/12/23 07:34:21;;;;;;;4.27;0.97;;;;;;;4.65;65.30;99819.19;5042481;27;101720;-52
2023/12/23 07:36:46;;;;;;;3.53;1.30;;;;;;;4.65;65.10;99821.94;5041324;27;107217;-52
2023/12/23 07:39:14;;;;;;;2.20;1.20;;;;;;;4.65;65.20;99823.91;5042278;27;96911;-52
2023/12/23 07:41:39;;;;;;;2.43;1.00;;;;;;;4.67;65.15;99821.41;5041830;27;96815;-52
2023/12/23 07:44:04;;;;;;;1.40;1.00;;;;;;;4.67;65.37;99829.63;5041535;27;96955;-52
2023/12/23 07:46:29;;;;;;;2.80;0.73;;;;;;;4.65;65.16;99821.94;5040899;27;97322;-52
2023/12/23 07:48:55;;;;;;;0.70;0.60;;;;;;;4.63;65.28;99818.19;5042909;27;96703;-52
2023/12/23 07:51:21;;;;;;;1.07;0.40;;;;;;;4.64;65.17;99816.94;5041072;27;97462;-52
2023/12/23 07:53:46;;;;;;;1.03;0.67;;;;;;;4.65;65.24;99821.94;5042548;27;96929;-52
2023/12/23 07:56:11;;;;;;;1.33;0.60;;;;;;;4.67;65.27;99824.16;5036838;27;97112;-52
2023/12/23 07:58:37;;;;;;;3.67;0.70;;;;;;;4.67;65.11;99818.69;5042204;27;104428;-52
2023/12/23 08:01:03;;;;;;;1.13;1.13;;;;;;;4.66;65.33;99822.69;5041987;27;97213;-52
2023/12/23 08:03:28;;;;;;;3.40;2.77;;;;;;;4.67;65.25;99818.69;5042971;27;97155;-52
2023/12/23 08:05:53;;;;;;;6.00;2.97;;;;;;;4.65;65.43;99815.69;5041218;27;108359;-52
2023/12/23 08:08:18;;;;;;;3.43;2.17;;;;;;;4.67;65.14;99818.69;5041698;27;96907;-52
2023/12/23 08:10:44;;;;;;;5.67;2.50;;;;;;;4.66;65.33;99812.47;5040923;27;100474;-52
2023/12/23 08:13:09;;;;;;;2.40;1.80;;;;;;;4.67;65.20;99816.69;5042523;27;101207;-52
2023/12/23 08:15:34;;;;;;;3.00;1.87;;;;;;;4.67;65.34;99813.19;5043550;27;108959;-52
2023/12/23 08:18:01;;;;;;;3.90;1.77;;;;;;;4.68;65.18;99810.00;5039216;27;96748;-52
2023/12/23 08:20:26;;;;;;;3.90;2.40;;;;;;;4.70;65.07;99821.19;5041448;27;97144;-52
2023/12/23 08:22:51;;;;;;;8.50;4.77;;;;;;;4.71;65.21;99821.94;5040888;27;96980;-52
2023/12/23 08:25:17;;;;;;;8.90;5.90;;;;;;;4.73;65.37;99817.44;5041287;27;96833;-52
2023/12/23 08:27:43;;;;;;;10.50;6.00;;;;;;;4.75;65.31;99819.72;5042242;27;97054;-52
2023/12/23 08:30:08;;;;;;;6.00;3.80;;;;;;;4.75;65.24;99819.72;5041580;27;96737;-52
2023/12/23 08:32:34;;;;;;;2.87;2.00;;;;;;;4.76;65.32;99811.00;5040547;27;97321;-53
2023/12/23 08:35:00;;;;;;;3.20;2.90;;;;;;;4.75;65.30;99811.50;5041772;27;98522;-52
2023/12/23 08:37:25;;;;;;;2.17;1.70;;;;;;;4.70;65.28;99814.97;5042603;27;96661;-52
2023/12/23 08:39:52;;;;;;;1.40;1.30;;;;;;;4.70;65.38;99815.72;5037918;27;97144;-52
2023/12/23 08:42:17;;;;;;;0.93;0.93;;;;;;;4.69;65.33;99816.22;5038646;27;97429;-52
2023/12/23 08:44:43;;;;;;;1.00;0.90;;;;;;;4.76;65.40;99813.75;5041317;27;97208;-52
2023/12/23 08:47:08;;;;;;;1.33;0.70;;;;;;;4.76;65.14;99808.28;5041115;27;97181;-52
2023/12/23 08:49:34;;;;;;;1.47;0.57;;;;;;;4.76;65.40;99818.47;5041065;27;96904;-52
2023/12/23 08:51:59;;;;;;;1.77;0.60;;;;;;;4.75;65.40;99809.53;5042066;27;97909;-52
2023/12/23 08:54:24;;;;;;;2.10;0.60;;;;;;;4.75;65.54;99820.50;5042960;27;97080;-52
2023/12/23 08:56:50;;;;;;;3.23;0.67;;;;;;;4.76;65.39;99813.00;5037973;27;97099;-52
2023/12/23 08:59:16;;;;;;;0.80;0.50;;;;;;;4.77;65.46;99811.78;5037091;27;96761;-52
2023/12/23 09:01:43;;;;;;;1.63;1.00;;;;;;;4.80;65.41;99813.50;5043141;27;97304;-52
2023/12/23 09:04:09;;;;;;;1.37;1.20;;;;;;;4.80;65.47;99814.25;5038291;27;96804;-52
2023/12/23 09:06:34;;;;;;;1.30;1.20;;;;;;;4.81;65.22;99815.00;5041113;27;97020;-52
2023/12/23 09:08:59;;;;;;;1.20;1.10;;;;;;;4.82;65.28;99814.50;5041654;27;97097;-52
2023/12/23 09:11:25;;;;;;;1.10;0.80;;;;;;;4.85;65.49;99814.75;5042289;27;98588;-52
2023/12/23 09:13:50;;;;;;;1.03;0.57;;;;;;;4.88;65.50;99824.72;5042663;27;100960;-52
2023/12/23 09:16:16;;;;;;;0.70;0.60;;;;;;;4.88;65.42;99814.53;5042113;27;96691;-52
2023/12/23 09:18:42;;;;;;;2.20;0.53;;;;;;;4.90;65.26;99817.50;5040765;27;97460;-52
2023/12/23 09:21:07;;;;;;;1.93;0.70;;;;;;;4.88;65.47;99827.47;5040392;27;97274;-52
2023/12/23 09:23:33;;;;;;;0.80;0.80;;;;;;;4.86;65.42;99827.22;5029869;27;109106;-52
2023/12/23 09:25:58;;;;;;;3.17;0.90;;;;;;;4.86;65.45;99836.19;5040306;27;96599;-52
2023/12/23 09:28:23;;;;;;;1.20;1.10;;;;;;;4.87;65.56;99834.19;5040665;27;103564;-52
2023/12/23 09:30:49;;;;;;;1.57;1.47;;;;;;;4.88;65.48;99835.69;5039900;27;100394;-52
2023/12/23 09:33:15;;;;;;;2.97;1.80;;;;;;;4.90;65.57;99844.16;5040349;27;97003;-52
2023/12/23 09:35:42;;;;;;;1.03;0.97;;;;;;;4.90;65.45;99838.69;5042318;27;97084;-52
2023/12/23 09:38:08;;;;;;;5.50;1.37;;;;;;;4.90;65.51;99839.44;5041829;27;96775;-52
2023/12/23 09:40:34;;;;;;;3.33;1.20;;;;;;;4.93;65.37;99837.69;5044054;27;98353;-52
2023/12/23 09:42:59;;;;;;;1.13;0.97;;;;;;;4.95;65.56;99841.44;5041211;27;98294;-52
2023/12/23 09:45:25;;;;;;;1.60;1.00;;;;;;;4.96;65.43;99851.16;5040261;27;96802;-52
2023/12/23 09:47:51;;;;;;;1.17;0.80;;;;;;;4.94;65.32;99847.41;5034698;27;97031;-52
2023/12/23 09:50:16;;;;;;;2.70;0.87;;;;;;;4.93;65.58;99857.59;5040133;27;100029;-52
2023/12/23 09:52:42;;;;;;;0.70;0.60;;;;;;;4.94;65.66;99856.38;5040181;27;97145;-52
2023/12/23 09:55:09;;;;;;;1.10;0.73;;;;;;;4.94;65.61;99861.09;5039488;27;96734;-52
2023/12/23 09:57:35;;;;;;;0.73;0.50;;;;;;;4.94;65.66;99853.63;5035154;27;97553;-52
2023/12/23 10:00:01;;;;;;;2.00;0.63;;;;;;;4.94;65.68;99852.88;5038950;27;97020;-52
2023/12/23 10:02:26;;;;;;;5.80;0.70;;;;;;;4.95;65.63;99854.41;5041468;27;97135;-52
2023/12/23 10:04:52;;;;;;;1.63;0.60;;;;;;;4.94;65.65;99858.38;5041282;27;97305;-52
2023/12/23 10:07:17;;;;;;;1.20;0.80;;;;;;;4.92;65.55;99858.13;5040411;27;97230;-52
2023/12/23 10:09:42;;;;;;;1.60;0.50;;;;;;;4.95;65.70;99857.13;5040981;27;104865;-52
2023/12/23 10:12:08;;;;;;;0.50;0.50;;;;;;;4.97;65.71;99863.63;5039588;27;96854;-52
2023/12/23 10:14:33;;;;;;;1.23;0.70;;;;;;;4.99;65.65;99866.59;5041163;27;97125;-52
2023/12/23 10:16:59;;;;;;;1.30;0.80;;;;;;;5.00;65.71;99861.84;5040156;27;97194;-52
2023/12/23 10:19:24;;;;;;;1.57;1.10;;;;;;;5.02;65.58;99873.09;5039063;27;98081;-52
2023/12/23 10:21:50;;;;;;;0.80;0.80;;;;;;;5.04;65.85;99865.84;5041454;27;97115;-52
2023/12/23 10:24:16;;;;;;;1.00;0.90;;;;;;;5.04;65.42;99863.09;5040196;27;97231;-52
2023/12/23 10:26:42;;;;;;;1.07;0.67;;;;;;;5.08;65.67;99860.13;5040486;27;96991;-50
2023/12/23 10:29:09;;;;;;;2.70;0.90;;;;;;;5.09;65.89;99865.13;5037534;27;98519;-53
2023/12/23 10:31:36;;;;;;;1.77;1.03;;;;;;;5.11;65.77;99854.41;5040350;27;97042;-53
2023/12/23 10:34:10;;;;;;;1.00;0.70;;;;;;;5.15;65.68;99856.91;5038792;27;97186;-53
2023/12/23 10:36:37;;;;;;;1.00;0.80;;;;;;;5.14;65.87;99853.41;5041267;27;97012;-53
2023/12/23 10:39:05;;;;;;;1.70;1.60;;;;;;;5.14;65.81;99850.66;5031702;27;97741;-53
2023/12/23 10:41:37;;;;;;;1.30;1.30;;;;;;;5.19;65.68;99854.66;5040855;27;97182;-53
2023/12/23 10:44:05;;;;;;;1.03;0.93;;;;;;;5.18;65.82;99862.13;5038847;27;97098;-53
2023/12/23 10:46:31;;;;;;;1.03;0.93;;;;;;;5.18;65.72;99861.38;5040637;27;96868;-53
2023/12/23 10:48:57;;;;;;;0.80;0.80;;;;;;;5.20;65.72;99861.63;5019645;27;98891;-53
2023/12/23 10:51:23;;;;;;;0.67;0.63;;;;;;;5.18;65.89;99873.09;5038457;27;96650;-53
2023/12/23 10:53:52;;;;;;;1.00;0.80;;;;;;;5.21;65.75;99885.06;5040525;27;96663;-53
2023/12/23 10:56:18;;;;;;;1.57;0.90;;;;;;;5.21;65.96;99872.13;5039005;27;97828;-53
2023/12/23 10:58:43;;;;;;;0.83;0.83;;;;;;;5.22;65.81;99868.13;5039110;27;97227;-53
2023/12/23 11:01:12;;;;;;;0.60;0.60;;;;;;;5.24;65.60;99871.09;5028301;27;97273;-53
2023/12/23 11:03:38;;;;;;;0.77;0.73;;;;;;;5.26;65.86;99879.56;5039644;27;97096;-53
2023/12/23 11:06:06;;;;;;;1.07;0.97;;;;;;;5.29;65.90;99872.34;5041500;27;97028;-53
2023/12/23 11:08:33;;;;;;;0.80;0.80;;;;;;;5.30;65.85;99882.81;5044114;27;98961;-53
2023/12/23 11:10:59;;;;;;;0.90;0.90;;;;;;;5.29;65.62;99870.38;5043294;27;97192;-53
2023/12/23 11:13:26;;;;;;;0.80;0.80;;;;;;;5.29;65.73;99880.56;5043773;27;97383;-53
2023/12/23 11:15:53;;;;;;;1.27;1.13;;;;;;;5.28;65.68;99879.81;5042698;27;97133;-53
2023/12/23 11:18:20;;;;;;;1.20;1.00;;;;;;;5.32;65.87;99874.84;5043201;27;97853;-53
2023/12/23 11:20:48;;;;;;;2.00;0.87;;;;;;;5.33;65.82;99868.13;5042813;27;97226;-53
2023/12/23 11:23:33;;;;;;;0.97;0.70;;;;;;;5.34;65.79;99864.13;5041900;27;97144;-53
2023/12/23 11:25:59;;;;;;;1.10;0.80;;;;;;;5.35;65.97;99879.34;5025182;27;97143;-53
2023/12/23 11:28:26;;;;;;;0.60;0.60;;;;;;;5.35;65.84;99881.31;5041874;27;99219;-53
2023/12/23 11:31:00;;;;;;;1.53;1.00;;;;;;;5.39;65.89;99884.56;5043788;27;97211;-53